sensor_id;sensor_type;location;lat;lon;timestamp;P1;durP1;ratioP1;P2;durP2;ratioP2
23614;SDS011;11985;49.404;7.734;2023-12-22T00:04:05;13.20;;;2.45;;
23614;SDS011;11985;49.404;7.734;2023-12-22T00:09:07;10.43;;;1.88;;
23614;SDS011;11985;49.404;7.734;2023-12-22T00:14:10;5.72;;;1.42;;
23614;SDS011;11985;49.404;7.734;2023-12-22T00:19:14;11.68;;;1.65;;
23614;SDS011;11985;49.404;7.734;2023-12-22T00:24:16;5.68;;;1.35;;
23614;SDS011;11985;49.404;7.734;2023-12-22T00:29:19;6.45;;;1.35;;
23614;SDS011;11985;49.404;7.734;2023-12-22T00:34:21;6.35;;;1.65;;
23614;SDS011;11985;49.404;7.734;2023-12-22T00:39:23;8.15;;;1.40;;
23614;SDS011;11985;49.404;7.734;2023-12-22T00:44:26;5.22;;;1.30;;
23614;SDS011;11985;49.404;7.734;2023-12-22T00:49:29;7.57;;;1.30;;
23614;SDS011;11985;49.404;7.734;2023-12-22T00:54:31;7.30;;;1.27;;
23614;SDS011;11985;49.404;7.734;2023-12-22T00:59:33;7.68;;;1.60;;
23614;SDS011;11985;49.404;7.734;2023-12-22T01:04:35;6.15;;;1.40;;
23614;SDS011;11985;49.404;7.734;2023-12-22T01:09:37;5.35;;;1.20;;
23614;SDS011;11985;49.404;7.734;2023-12-22T01:14:40;6.60;;;1.25;;
23614;SDS011;11985;49.404;7.734;2023-12-22T01:19:41;10.65;;;1.13;;
23614;SDS011;11985;49.404;7.734;2023-12-22T01:24:43;5.75;;;1.17;;
23614;SDS011;11985;49.404;7.734;2023-12-22T01:29:46;12.15;;;1.63;;
23614;SDS011;11985;49.404;7.734;2023-12-22T01:34:48;9.20;;;1.60;;
23614;SDS011;11985;49.404;7.734;2023-12-22T01:39:50;6.60;;;1.17;;
23614;SDS011;11985;49.404;7.734;2023-12-22T01:44:53;7.38;;;1.33;;
23614;SDS011;11985;49.404;7.734;2023-12-22T01:49:54;7.45;;;1.40;;
23614;SDS011;11985;49.404;7.734;2023-12-22T01:54:56;7.05;;;1.40;;
23614;SDS011;11985;49.404;7.734;2023-12-22T01:59:59;8.98;;;1.40;;
23614;SDS011;11985;49.404;7.734;2023-12-22T02:05:00;5.13;;;1.23;;
23614;SDS011;11985;49.404;7.734;2023-12-22T02:10:03;11.27;;;1.60;;
23614;SDS011;11985;49.404;7.734;2023-12-22T02:15:07;4.70;;;1.40;;
23614;SDS011;11985;49.404;7.734;2023-12-22T02:20:09;6.90;;;1.20;;
23614;SDS011;11985;49.404;7.734;2023-12-22T02:25:13;12.02;;;2.13;;
23614;SDS011;11985;49.404;7.734;2023-12-22T02:30:16;5.95;;;1.88;;
23614;SDS011;11985;49.404;7.734;2023-12-22T02:35:25;9.90;;;1.60;;
23614;SDS011;11985;49.404;7.734;2023-12-22T02:40:30;7.32;;;1.33;;
23614;SDS011;11985;49.404;7.734;2023-12-22T02:45:33;6.87;;;1.80;;
23614;SDS011;11985;49.404;7.734;2023-12-22T02:50:34;10.02;;;1.50;;
23614;SDS011;11985;49.404;7.734;2023-12-22T02:55:37;8.32;;;1.30;;
23614;SDS011;11985;49.404;7.734;2023-12-22T03:00:38;7.57;;;1.60;;
23614;SDS011;11985;49.404;7.734;2023-12-22T03:05:40;2.20;;;1.20;;
23614;SDS011;11985;49.404;7.734;2023-12-22T03:10:43;7.60;;;1.33;;
23614;SDS011;11985;49.404;7.734;2023-12-22T03:15:45;8.38;;;1.88;;
23614;SDS011;11985;49.404;7.734;2023-12-22T03:20:47;8.93;;;1.80;;
23614;SDS011;11985;49.404;7.734;2023-12-22T03:25:50;8.82;;;1.63;;
23614;SDS011;11985;49.404;7.734;2023-12-22T03:30:51;8.55;;;1.55;;
23614;SDS011;11985;49.404;7.734;2023-12-22T03:35:53;8.65;;;1.60;;
23614;SDS011;11985;49.404;7.734;2023-12-22T03:40:55;11.50;;;2.55;;
23614;SDS011;11985;49.404;7.734;2023-12-22T03:45:57;7.10;;;1.85;;
23614;SDS011;11985;49.404;7.734;2023-12-22T03:50:58;12.20;;;1.60;;
23614;SDS011;11985;49.404;7.734;2023-12-22T03:56:01;9.88;;;1.20;;
23614;SDS011;11985;49.404;7.734;2023-12-22T04:01:03;5.47;;;1.00;;
23614;SDS011;11985;49.404;7.734;2023-12-22T04:06:07;6.53;;;1.13;;
23614;SDS011;11985;49.404;7.734;2023-12-22T04:11:10;5.50;;;1.20;;
23614;SDS011;11985;49.404;7.734;2023-12-22T04:16:11;8.88;;;1.35;;
23614;SDS011;11985;49.404;7.734;2023-12-22T04:21:13;11.00;;;1.67;;
23614;SDS011;11985;49.404;7.734;2023-12-22T04:26:16;7.68;;;1.40;;
23614;SDS011;11985;49.404;7.734;2023-12-22T04:31:17;6.70;;;1.15;;
23614;SDS011;11985;49.404;7.734;2023-12-22T04:36:19;8.80;;;1.83;;
23614;SDS011;11985;49.404;7.734;2023-12-22T04:41:22;11.85;;;1.52;;
23614;SDS011;11985;49.404;7.734;2023-12-22T04:46:23;14.98;;;2.20;;
23614;SDS011;11985;49.404;7.734;2023-12-22T04:51:25;11.50;;;1.67;;
23614;SDS011;11985;49.404;7.734;2023-12-22T04:56:27;9.45;;;1.88;;
23614;SDS011;11985;49.404;7.734;2023-12-22T05:01:29;12.65;;;1.77;;
23614;SDS011;11985;49.404;7.734;2023-12-22T05:06:30;11.43;;;1.85;;
23614;SDS011;11985;49.404;7.734;2023-12-22T05:11:33;12.98;;;2.13;;
23614;SDS011;11985;49.404;7.734;2023-12-22T05:16:35;8.95;;;1.60;;
23614;SDS011;11985;49.404;7.734;2023-12-22T05:21:37;8.18;;;1.83;;
23614;SDS011;11985;49.404;7.734;2023-12-22T05:26:40;12.55;;;2.17;;
23614;SDS011;11985;49.404;7.734;2023-12-22T05:31:42;16.70;;;2.45;;
23614;SDS011;11985;49.404;7.734;2023-12-22T05:36:43;20.65;;;2.67;;
23614;SDS011;11985;49.404;7.734;2023-12-22T05:41:46;11.55;;;2.17;;
23614;SDS011;11985;49.404;7.734;2023-12-22T05:46:48;8.55;;;1.55;;
23614;SDS011;11985;49.404;7.734;2023-12-22T05:51:50;14.40;;;2.30;;
23614;SDS011;11985;49.404;7.734;2023-12-22T05:56:53;14.18;;;1.98;;
23614;SDS011;11985;49.404;7.734;2023-12-22T06:01:54;13.57;;;1.55;;
23614;SDS011;11985;49.404;7.734;2023-12-22T06:06:56;10.20;;;2.00;;
23614;SDS011;11985;49.404;7.734;2023-12-22T06:11:59;2.28;;;0.82;;
23614;SDS011;11985;49.404;7.734;2023-12-22T06:17:00;5.50;;;1.55;;
23614;SDS011;11985;49.404;7.734;2023-12-22T06:22:02;6.85;;;1.95;;
23614;SDS011;11985;49.404;7.734;2023-12-22T06:27:05;6.97;;;1.50;;
23614;SDS011;11985;49.404;7.734;2023-12-22T06:32:07;4.53;;;1.35;;
23614;SDS011;11985;49.404;7.734;2023-12-22T06:37:09;8.43;;;1.30;;
23614;SDS011;11985;49.404;7.734;2023-12-22T06:42:12;3.80;;;1.40;;
23614;SDS011;11985;49.404;7.734;2023-12-22T06:47:13;6.63;;;1.13;;
23614;SDS011;11985;49.404;7.734;2023-12-22T06:52:15;8.70;;;1.50;;
23614;SDS011;11985;49.404;7.734;2023-12-22T06:57:18;6.18;;;1.55;;
23614;SDS011;11985;49.404;7.734;2023-12-22T07:02:21;14.13;;;1.43;;
23614;SDS011;11985;49.404;7.734;2023-12-22T07:07:22;4.75;;;0.73;;
23614;SDS011;11985;49.404;7.734;2023-12-22T07:12:25;2.35;;;0.90;;
23614;SDS011;11985;49.404;7.734;2023-12-22T07:17:26;11.63;;;1.40;;
23614;SDS011;11985;49.404;7.734;2023-12-22T07:22:28;10.15;;;1.50;;
23614;SDS011;11985;49.404;7.734;2023-12-22T07:27:31;9.00;;;1.77;;
23614;SDS011;11985;49.404;7.734;2023-12-22T07:32:34;10.27;;;1.90;;
23614;SDS011;11985;49.404;7.734;2023-12-22T07:37:35;10.63;;;2.10;;
23614;SDS011;11985;49.404;7.734;2023-12-22T07:42:38;5.35;;;1.63;;
23614;SDS011;11985;49.404;7.734;2023-12-22T07:47:40;15.70;;;2.20;;
23614;SDS011;11985;49.404;7.734;2023-12-22T07:52:41;10.38;;;1.63;;
23614;SDS011;11985;49.404;7.734;2023-12-22T07:57:45;13.05;;;2.20;;
23614;SDS011;11985;49.404;7.734;2023-12-22T08:02:47;14.68;;;2.63;;
23614;SDS011;11985;49.404;7.734;2023-12-22T08:07:48;11.90;;;2.72;;
23614;SDS011;11985;49.404;7.734;2023-12-22T08:12:51;13.95;;;2.60;;
23614;SDS011;11985;49.404;7.734;2023-12-22T08:17:52;18.85;;;3.33;;
23614;SDS011;11985;49.404;7.734;2023-12-22T08:22:54;26.33;;;2.50;;
23614;SDS011;11985;49.404;7.734;2023-12-22T08:27:57;10.30;;;2.67;;
23614;SDS011;11985;49.404;7.734;2023-12-22T08:33:02;19.48;;;3.28;;
23614;SDS011;11985;49.404;7.734;2023-12-22T08:38:03;27.45;;;3.97;;
23614;SDS011;11985;49.404;7.734;2023-12-22T08:43:06;18.60;;;3.25;;
23614;SDS011;11985;49.404;7.734;2023-12-22T08:48:08;23.40;;;2.83;;
23614;SDS011;11985;49.404;7.734;2023-12-22T08:53:09;24.25;;;3.70;;
23614;SDS011;11985;49.404;7.734;2023-12-22T08:58:13;17.95;;;2.90;;
23614;SDS011;11985;49.404;7.734;2023-12-22T09:03:15;26.92;;;4.45;;
23614;SDS011;11985;49.404;7.734;2023-12-22T09:08:16;21.92;;;3.45;;
23614;SDS011;11985;49.404;7.734;2023-12-22T09:13:19;27.02;;;6.15;;
23614;SDS011;11985;49.404;7.734;2023-12-22T09:18:20;23.52;;;3.65;;
23614;SDS011;11985;49.404;7.734;2023-12-22T09:23:23;34.58;;;3.83;;
23614;SDS011;11985;49.404;7.734;2023-12-22T09:28:26;19.65;;;4.22;;
23614;SDS011;11985;49.404;7.734;2023-12-22T09:33:27;24.55;;;4.13;;
23614;SDS011;11985;49.404;7.734;2023-12-22T09:38:29;28.00;;;4.25;;
23614;SDS011;11985;49.404;7.734;2023-12-22T09:43:32;25.15;;;4.15;;
23614;SDS011;11985;49.404;7.734;2023-12-22T09:48:36;21.20;;;4.20;;
23614;SDS011;11985;49.404;7.734;2023-12-22T09:53:40;20.00;;;4.05;;
23614;SDS011;11985;49.404;7.734;2023-12-22T09:58:43;25.10;;;4.35;;
23614;SDS011;11985;49.404;7.734;2023-12-22T10:03:46;23.33;;;3.60;;
23614;SDS011;11985;49.404;7.734;2023-12-22T10:08:48;15.23;;;2.65;;
23614;SDS011;11985;49.404;7.734;2023-12-22T10:13:53;22.17;;;3.05;;
23614;SDS011;11985;49.404;7.734;2023-12-22T10:18:56;18.17;;;3.60;;
23614;SDS011;11985;49.404;7.734;2023-12-22T10:23:59;20.58;;;3.75;;
23614;SDS011;11985;49.404;7.734;2023-12-22T10:29:02;15.50;;;3.13;;
23614;SDS011;11985;49.404;7.734;2023-12-22T10:34:04;16.88;;;3.92;;
23614;SDS011;11985;49.404;7.734;2023-12-22T10:39:06;15.52;;;2.95;;
23614;SDS011;11985;49.404;7.734;2023-12-22T10:44:11;15.40;;;2.90;;
23614;SDS011;11985;49.404;7.734;2023-12-22T10:49:12;14.35;;;2.38;;
23614;SDS011;11985;49.404;7.734;2023-12-22T10:54:15;13.38;;;2.95;;
23614;SDS011;11985;49.404;7.734;2023-12-22T10:59:19;11.98;;;1.88;;
23614;SDS011;11985;49.404;7.734;2023-12-22T11:04:25;12.35;;;2.70;;
23614;SDS011;11985;49.404;7.734;2023-12-22T11:09:31;12.25;;;1.52;;
23614;SDS011;11985;49.404;7.734;2023-12-22T11:14:37;12.82;;;1.65;;
23614;SDS011;11985;49.404;7.734;2023-12-22T11:19:40;10.60;;;1.50;;
23614;SDS011;11985;49.404;7.734;2023-12-22T11:24:42;3.83;;;1.05;;
23614;SDS011;11985;49.404;7.734;2023-12-22T11:29:49;6.45;;;1.80;;
23614;SDS011;11985;49.404;7.734;2023-12-22T11:34:51;9.23;;;2.50;;
23614;SDS011;11985;49.404;7.734;2023-12-22T11:39:54;9.57;;;2.60;;
23614;SDS011;11985;49.404;7.734;2023-12-22T11:44:57;4.50;;;1.15;;
23614;SDS011;11985;49.404;7.734;2023-12-22T11:49:59;3.75;;;1.23;;
23614;SDS011;11985;49.404;7.734;2023-12-22T11:55:01;2.08;;;0.95;;
23614;SDS011;11985;49.404;7.734;2023-12-22T12:00:06;3.70;;;0.90;;
23614;SDS011;11985;49.404;7.734;2023-12-22T12:05:12;3.22;;;0.90;;
23614;SDS011;11985;49.404;7.734;2023-12-22T12:15:50;2.85;;;1.17;;
23614;SDS011;11985;49.404;7.734;2023-12-22T12:20:52;2.70;;;0.77;;
23614;SDS011;11985;49.404;7.734;2023-12-22T12:25:54;1.52;;;0.70;;
23614;SDS011;11985;49.404;7.734;2023-12-22T12:30:58;4.05;;;0.90;;
23614;SDS011;11985;49.404;7.734;2023-12-22T12:36:00;3.20;;;1.30;;
23614;SDS011;11985;49.404;7.734;2023-12-22T12:41:04;1.85;;;0.90;;
23614;SDS011;11985;49.404;7.734;2023-12-22T12:46:07;1.92;;;0.98;;
23614;SDS011;11985;49.404;7.734;2023-12-22T12:51:09;2.47;;;1.00;;
23614;SDS011;11985;49.404;7.734;2023-12-22T12:56:10;2.53;;;0.77;;
23614;SDS011;11985;49.404;7.734;2023-12-22T13:01:15;0.85;;;0.50;;
23614;SDS011;11985;49.404;7.734;2023-12-22T13:06:17;1.83;;;1.05;;
23614;SDS011;11985;49.404;7.734;2023-12-22T13:11:20;0.95;;;0.60;;
23614;SDS011;11985;49.404;7.734;2023-12-22T13:16:24;4.65;;;0.77;;
23614;SDS011;11985;49.404;7.734;2023-12-22T13:21:29;1.67;;;0.60;;
23614;SDS011;11985;49.404;7.734;2023-12-22T13:26:31;1.08;;;0.60;;
23614;SDS011;11985;49.404;7.734;2023-12-22T13:31:36;4.28;;;0.70;;
23614;SDS011;11985;49.404;7.734;2023-12-22T13:36:38;1.83;;;1.00;;
23614;SDS011;11985;49.404;7.734;2023-12-22T13:41:42;3.75;;;1.13;;
23614;SDS011;11985;49.404;7.734;2023-12-22T13:46:47;2.53;;;0.70;;
23614;SDS011;11985;49.404;7.734;2023-12-22T13:51:49;1.92;;;0.80;;
23614;SDS011;11985;49.404;7.734;2023-12-22T13:56:50;4.03;;;1.00;;
23614;SDS011;11985;49.404;7.734;2023-12-22T14:01:53;5.00;;;1.00;;
23614;SDS011;11985;49.404;7.734;2023-12-22T14:06:55;1.48;;;0.70;;
23614;SDS011;11985;49.404;7.734;2023-12-22T14:11:57;1.77;;;0.90;;
23614;SDS011;11985;49.404;7.734;2023-12-22T14:17:00;4.05;;;1.10;;
23614;SDS011;11985;49.404;7.734;2023-12-22T14:22:02;0.90;;;0.52;;
23614;SDS011;11985;49.404;7.734;2023-12-22T14:27:03;5.13;;;1.45;;
23614;SDS011;11985;49.404;7.734;2023-12-22T14:32:07;3.03;;;1.25;;
23614;SDS011;11985;49.404;7.734;2023-12-22T14:37:08;2.20;;;1.52;;
23614;SDS011;11985;49.404;7.734;2023-12-22T14:42:10;4.97;;;1.05;;
23614;SDS011;11985;49.404;7.734;2023-12-22T14:47:13;2.53;;;1.17;;
23614;SDS011;11985;49.404;7.734;2023-12-22T14:52:15;1.48;;;1.20;;
23614;SDS011;11985;49.404;7.734;2023-12-22T14:57:17;4.22;;;1.35;;
23614;SDS011;11985;49.404;7.734;2023-12-22T15:02:20;1.33;;;0.90;;
23614;SDS011;11985;49.404;7.734;2023-12-22T15:07:21;6.88;;;1.67;;
23614;SDS011;11985;49.404;7.734;2023-12-22T15:12:23;4.25;;;0.82;;
23614;SDS011;11985;49.404;7.734;2023-12-22T15:17:26;3.70;;;0.50;;
23614;SDS011;11985;49.404;7.734;2023-12-22T15:22:28;2.05;;;0.88;;
23614;SDS011;11985;49.404;7.734;2023-12-22T15:27:29;4.05;;;1.13;;
23614;SDS011;11985;49.404;7.734;2023-12-22T15:32:34;1.73;;;0.85;;
23614;SDS011;11985;49.404;7.734;2023-12-22T15:37:35;0.95;;;0.80;;
23614;SDS011;11985;49.404;7.734;2023-12-22T15:42:37;1.40;;;0.70;;
23614;SDS011;11985;49.404;7.734;2023-12-22T15:47:40;1.80;;;0.80;;
23614;SDS011;11985;49.404;7.734;2023-12-22T15:52:41;2.90;;;1.00;;
23614;SDS011;11985;49.404;7.734;2023-12-22T15:57:43;1.23;;;0.70;;
23614;SDS011;11985;49.404;7.734;2023-12-22T16:02:46;3.95;;;1.20;;
23614;SDS011;11985;49.404;7.734;2023-12-22T16:07:48;4.63;;;1.00;;
23614;SDS011;11985;49.404;7.734;2023-12-22T16:12:50;0.40;;;0.40;;
23614;SDS011;11985;49.404;7.734;2023-12-22T16:17:53;1.00;;;0.90;;
23614;SDS011;11985;49.404;7.734;2023-12-22T16:22:54;1.15;;;0.90;;
23614;SDS011;11985;49.404;7.734;2023-12-22T16:27:56;3.67;;;1.30;;
23614;SDS011;11985;49.404;7.734;2023-12-22T16:32:59;3.83;;;2.20;;
23614;SDS011;11985;49.404;7.734;2023-12-22T16:38:01;1.77;;;0.90;;
23614;SDS011;11985;49.404;7.734;2023-12-22T16:43:03;3.50;;;1.20;;
23614;SDS011;11985;49.404;7.734;2023-12-22T16:48:07;0.70;;;0.70;;
23614;SDS011;11985;49.404;7.734;2023-12-22T16:53:08;1.50;;;0.80;;
23614;SDS011;11985;49.404;7.734;2023-12-22T16:58:10;2.10;;;0.80;;
23614;SDS011;11985;49.404;7.734;2023-12-22T17:03:13;2.25;;;1.20;;
23614;SDS011;11985;49.404;7.734;2023-12-22T17:08:15;2.30;;;1.00;;
23614;SDS011;11985;49.404;7.734;2023-12-22T17:13:18;1.30;;;0.93;;
23614;SDS011;11985;49.404;7.734;2023-12-22T17:18:21;2.92;;;2.15;;
23614;SDS011;11985;49.404;7.734;2023-12-22T17:23:23;2.63;;;1.20;;
23614;SDS011;11985;49.404;7.734;2023-12-22T17:28:25;2.78;;;1.33;;
23614;SDS011;11985;49.404;7.734;2023-12-22T17:33:28;4.13;;;1.08;;
23614;SDS011;11985;49.404;7.734;2023-12-22T17:38:29;1.58;;;0.90;;
23614;SDS011;11985;49.404;7.734;2023-12-22T17:43:31;2.55;;;1.00;;
23614;SDS011;11985;49.404;7.734;2023-12-22T17:48:34;1.75;;;1.00;;
23614;SDS011;11985;49.404;7.734;2023-12-22T17:53:37;2.65;;;1.30;;
23614;SDS011;11985;49.404;7.734;2023-12-22T17:58:39;3.72;;;1.55;;
23614;SDS011;11985;49.404;7.734;2023-12-22T18:03:42;2.65;;;1.50;;
23614;SDS011;11985;49.404;7.734;2023-12-22T18:08:44;2.35;;;0.95;;
23614;SDS011;11985;49.404;7.734;2023-12-22T18:13:45;2.40;;;0.90;;
23614;SDS011;11985;49.404;7.734;2023-12-22T18:18:53;2.25;;;1.20;;
23614;SDS011;11985;49.404;7.734;2023-12-22T18:23:55;1.38;;;0.93;;
23614;SDS011;11985;49.404;7.734;2023-12-22T18:28:56;5.55;;;2.00;;
23614;SDS011;11985;49.404;7.734;2023-12-22T18:34:00;2.55;;;0.90;;
23614;SDS011;11985;49.404;7.734;2023-12-22T18:39:03;5.05;;;1.45;;
23614;SDS011;11985;49.404;7.734;2023-12-22T18:44:05;5.72;;;1.85;;
23614;SDS011;11985;49.404;7.734;2023-12-22T18:49:08;3.25;;;0.90;;
23614;SDS011;11985;49.404;7.734;2023-12-22T18:54:13;2.30;;;0.90;;
23614;SDS011;11985;49.404;7.734;2023-12-22T18:59:15;3.03;;;1.30;;
23614;SDS011;11985;49.404;7.734;2023-12-22T19:04:18;2.70;;;1.65;;
23614;SDS011;11985;49.404;7.734;2023-12-22T19:09:19;5.95;;;2.30;;
23614;SDS011;11985;49.404;7.734;2023-12-22T19:14:21;6.45;;;1.25;;
23614;SDS011;11985;49.404;7.734;2023-12-22T19:19:24;1.45;;;0.90;;
23614;SDS011;11985;49.404;7.734;2023-12-22T19:24:25;4.70;;;2.95;;
23614;SDS011;11985;49.404;7.734;2023-12-22T19:29:27;4.75;;;1.55;;
23614;SDS011;11985;49.404;7.734;2023-12-22T19:34:30;2.60;;;1.30;;
23614;SDS011;11985;49.404;7.734;2023-12-22T19:39:32;3.03;;;1.10;;
23614;SDS011;11985;49.404;7.734;2023-12-22T19:44:33;4.07;;;1.58;;
23614;SDS011;11985;49.404;7.734;2023-12-22T19:49:37;6.22;;;1.67;;
23614;SDS011;11985;49.404;7.734;2023-12-22T19:54:38;2.75;;;1.25;;
23614;SDS011;11985;49.404;7.734;2023-12-22T19:59:40;2.85;;;0.77;;
23614;SDS011;11985;49.404;7.734;2023-12-22T20:04:43;6.82;;;1.15;;
23614;SDS011;11985;49.404;7.734;2023-12-22T20:09:45;2.05;;;1.00;;
23614;SDS011;11985;49.404;7.734;2023-12-22T20:14:47;6.90;;;1.20;;
23614;SDS011;11985;49.404;7.734;2023-12-22T20:19:50;1.10;;;0.80;;
23614;SDS011;11985;49.404;7.734;2023-12-22T20:24:51;1.17;;;0.60;;
23614;SDS011;11985;49.404;7.734;2023-12-22T20:29:53;2.15;;;0.82;;
23614;SDS011;11985;49.404;7.734;2023-12-22T20:34:56;7.00;;;1.17;;
23614;SDS011;11985;49.404;7.734;2023-12-22T20:39:57;4.10;;;1.30;;
23614;SDS011;11985;49.404;7.734;2023-12-22T20:45:01;5.80;;;1.50;;
23614;SDS011;11985;49.404;7.734;2023-12-22T20:50:08;5.82;;;1.77;;
23614;SDS011;11985;49.404;7.734;2023-12-22T20:55:15;4.70;;;1.40;;
23614;SDS011;11985;49.404;7.734;2023-12-22T21:00:18;3.88;;;1.20;;
23614;SDS011;11985;49.404;7.734;2023-12-22T21:05:26;4.72;;;1.50;;
23614;SDS011;11985;49.404;7.734;2023-12-22T21:10:29;3.20;;;1.63;;
23614;SDS011;11985;49.404;7.734;2023-12-22T21:20:49;3.30;;;1.48;;
23614;SDS011;11985;49.404;7.734;2023-12-22T21:25:51;8.95;;;1.67;;
23614;SDS011;11985;49.404;7.734;2023-12-22T21:30:53;6.90;;;1.50;;
23614;SDS011;11985;49.404;7.734;2023-12-22T21:35:59;9.57;;;2.17;;
23614;SDS011;11985;49.404;7.734;2023-12-22T21:41:01;4.85;;;1.77;;
23614;SDS011;11985;49.404;7.734;2023-12-22T21:46:03;8.80;;;2.15;;
23614;SDS011;11985;49.404;7.734;2023-12-22T21:51:06;8.07;;;2.20;;
23614;SDS011;11985;49.404;7.734;2023-12-22T21:56:18;9.00;;;2.78;;
23614;SDS011;11985;49.404;7.734;2023-12-22T22:01:20;5.65;;;1.67;;
23614;SDS011;11985;49.404;7.734;2023-12-22T22:06:27;8.38;;;1.55;;
23614;SDS011;11985;49.404;7.734;2023-12-22T22:11:28;10.50;;;1.98;;
23614;SDS011;11985;49.404;7.734;2023-12-22T22:16:30;6.90;;;1.60;;
23614;SDS011;11985;49.404;7.734;2023-12-22T22:21:34;7.70;;;2.13;;
23614;SDS011;11985;49.404;7.734;2023-12-22T22:26:38;7.45;;;1.90;;
23614;SDS011;11985;49.404;7.734;2023-12-22T22:31:43;6.22;;;1.75;;
23614;SDS011;11985;49.404;7.734;2023-12-22T22:36:46;7.00;;;1.92;;
23614;SDS011;11985;49.404;7.734;2023-12-22T22:41:59;3.83;;;1.65;;
23614;SDS011;11985;49.404;7.734;2023-12-22T22:47:01;10.38;;;1.98;;
23614;SDS011;11985;49.404;7.734;2023-12-22T22:52:05;5.93;;;1.70;;
23614;SDS011;11985;49.404;7.734;2023-12-22T22:57:06;11.23;;;1.85;;
23614;SDS011;11985;49.404;7.734;2023-12-22T23:02:08;10.00;;;1.98;;
23614;SDS011;11985;49.404;7.734;2023-12-22T23:07:14;5.45;;;1.80;;
23614;SDS011;11985;49.404;7.734;2023-12-22T23:12:22;11.07;;;1.75;;
23614;SDS011;11985;49.404;7.734;2023-12-22T23:17:24;10.23;;;2.28;;
23614;SDS011;11985;49.404;7.734;2023-12-22T23:22:28;7.78;;;1.80;;
23614;SDS011;11985;49.404;7.734;2023-12-22T23:27:30;4.90;;;1.67;;
23614;SDS011;11985;49.404;7.734;2023-12-22T23:32:32;11.48;;;1.63;;
23614;SDS011;11985;49.404;7.734;2023-12-22T23:37:35;11.52;;;1.70;;
23614;SDS011;11985;49.404;7.734;2023-12-22T23:42:46;14.23;;;2.85;;
23614;SDS011;11985;49.404;7.734;2023-12-22T23:47:47;7.18;;;1.85;;
23614;SDS011;11985;49.404;7.734;2023-12-22T23:52:50;5.07;;;1.27;;
23614;SDS011;11985;49.404;7.734;2023-12-22T23:57:59;8.68;;;1.52;;
